Time;durP1;ratioP1;P1;durP2;ratioP2;P2;SDS_P1;SDS_P2;PMS_P1;PMS_P2;Temp;Humidity;BMP_temperature;BMP_pressure;BME280_temperature;BME280_humidity;BME280_pressure;Samples;Min_cycle;Max_cycle;Signal;HPM_P1;HPM_P2
2022/09/05 00:02:02;;;;;;;4.07;3.67;;;17.40;78.30;;;;;;5054620;28;20557;-66
2022/09/05 00:05:05;;;;;;;4.73;3.43;;;17.30;78.40;;;;;;5071443;28;20246;-66
2022/09/05 00:08:00;;;;;;;4.00;3.63;;;17.20;78.80;;;;;;5051521;28;20692;-66
2022/09/05 00:10:53;;;;;;;3.33;2.80;;;17.20;80.10;;;;;;5051421;28;20195;-65
2022/09/05 00:13:30;;;;;;;4.03;3.60;;;17.10;80.70;;;;;;5065660;28;20196;-66
2022/09/05 00:16:00;;;;;;;4.00;3.53;;;17.10;80.90;;;;;;5051567;28;20213;-66
2022/09/05 00:18:48;;;;;;;6.67;3.93;;;17.10;80.80;;;;;;5069163;28;20195;-66
2022/09/05 00:21:29;;;;;;;4.67;3.70;;;17.10;81.30;;;;;;5051215;28;20222;-66
2022/09/05 00:24:12;;;;;;;5.67;3.70;;;17.10;81.20;;;;;;5051356;28;20194;-66
2022/09/05 00:26:51;;;;;;;6.23;3.43;;;17.10;81.40;;;;;;5050884;28;20392;-66
2022/09/05 00:29:28;;;;;;;4.37;3.93;;;17.10;81.10;;;;;;5071042;28;20179;-66
2022/09/05 00:32:13;;;;;;;4.23;3.63;;;17.10;81.10;;;;;;5069024;28;20214;-68
2022/09/05 00:35:00;;;;;;;3.87;3.50;;;17.10;80.80;;;;;;5071023;28;20173;-66
2022/09/05 00:37:34;;;;;;;4.60;3.93;;;17.10;81.40;;;;;;5049597;28;20315;-66
2022/09/05 00:40:31;;;;;;;4.87;3.33;;;17.10;81.60;;;;;;5051014;28;20221;-66
2022/09/05 00:43:05;;;;;;;4.30;4.00;;;17.10;81.90;;;;;;5061300;28;20211;-66
2022/09/05 00:45:42;;;;;;;4.80;3.50;;;17.10;81.20;;;;;;5050728;28;20561;-66
2022/09/05 00:48:33;;;;;;;4.07;3.67;;;17.10;82.40;;;;;;5062425;28;20222;-67
2022/09/05 00:51:22;;;;;;;4.70;3.97;;;17.10;82.20;;;;;;5070324;28;20698;-66
2022/09/05 00:54:00;;;;;;;3.60;3.30;;;17.00;82.70;;;;;;5066896;28;20227;-66
2022/09/05 00:57:20;;;;;;;3.50;3.20;;;17.00;82.90;;;;;;5050441;28;20263;-65
2022/09/05 01:00:20;;;;;;;6.33;3.77;;;17.00;82.60;;;;;;5007994;28;20624;-65
2022/09/05 01:03:10;;;;;;;5.00;4.43;;;17.00;83.60;;;;;;5058386;28;20222;-65
2022/09/05 01:05:43;;;;;;;5.90;4.17;;;17.00;83.00;;;;;;5070366;28;20212;-65
2022/09/05 01:08:39;;;;;;;4.17;3.37;;;17.00;83.40;;;;;;5061780;28;20258;-65
2022/09/05 01:11:18;;;;;;;5.37;4.37;;;16.90;83.50;;;;;;5050158;28;20318;-66
2022/09/05 01:13:53;;;;;;;4.20;3.70;;;16.90;84.00;;;;;;5066362;28;20195;-66
2022/09/05 01:16:33;;;;;;;5.30;4.40;;;16.90;84.10;;;;;;5050415;28;20241;-66
2022/09/05 01:19:46;;;;;;;4.13;3.67;;;16.90;84.30;;;;;;5068535;28;20205;-65
2022/09/05 01:22:45;;;;;;;5.63;4.40;;;16.80;83.80;;;;;;4991423;28;20309;-65
2022/09/05 01:25:30;;;;;;;4.30;3.90;;;16.80;84.40;;;;;;5007807;28;20202;-65
2022/09/05 01:28:16;;;;;;;5.83;4.43;;;16.70;84.80;;;;;;5056454;28;20295;-66
2022/09/05 01:30:59;;;;;;;4.47;3.97;;;16.70;84.70;;;;;;5050009;28;20193;-65
2022/09/05 01:33:58;;;;;;;6.37;3.93;;;16.70;85.20;;;;;;5062519;28;20222;-65
2022/09/05 01:36:38;;;;;;;5.87;3.57;;;16.70;85.20;;;;;;5049841;28;20270;-66
2022/09/05 01:39:20;;;;;;;5.90;4.17;;;16.70;86.00;;;;;;5069550;28;20252;-65
2022/09/05 01:42:18;;;;;;;4.87;4.33;;;16.70;86.30;;;;;;5048358;28;20190;-66
2022/09/05 01:45:18;;;;;;;4.57;4.17;;;16.60;85.70;;;;;;5069494;28;20165;-65
2022/09/05 01:47:55;;;;;;;4.97;4.37;;;16.60;86.60;;;;;;5055853;28;20696;-66
2022/09/05 01:50:46;;;;;;;5.43;4.87;;;16.60;86.50;;;;;;5049347;28;20301;-65
2022/09/05 01:53:26;;;;;;;4.30;3.90;;;16.60;86.60;;;;;;5059930;28;20195;-66
2022/09/05 01:56:21;;;;;;;4.50;4.10;;;16.60;87.40;;;;;;5049476;28;20192;-65
2022/09/05 01:59:22;;;;;;;4.10;3.70;;;16.50;87.70;;;;;;5064155;28;20200;-66
2022/09/05 02:02:14;;;;;;;4.40;4.00;;;16.50;87.70;;;;;;5047807;28;20244;-68
2022/09/05 02:04:58;;;;;;;4.70;4.10;;;16.50;88.40;;;;;;5068780;28;20182;-66
2022/09/05 02:07:47;;;;;;;5.17;4.27;;;16.50;88.30;;;;;;5052404;28;20317;-65
2022/09/05 02:10:50;;;;;;;5.73;4.43;;;16.50;88.50;;;;;;5068811;28;20189;-65
2022/09/05 02:13:33;;;;;;;5.13;4.60;;;16.50;88.40;;;;;;5059789;28;20200;-65
2022/09/05 02:16:24;;;;;;;4.77;4.27;;;16.40;89.20;;;;;;5049132;28;20237;-66
2022/09/05 02:18:53;;;;;;;5.40;4.80;;;16.40;89.50;;;;;;5063979;28;20208;-66
2022/09/05 02:21:40;;;;;;;4.10;3.77;;;16.40;89.60;;;;;;5068540;28;20189;-65
2022/09/05 02:24:22;;;;;;;4.90;3.50;;;16.40;90.10;;;;;;5066242;28;20198;-64
2022/09/05 02:27:33;;;;;;;5.93;4.17;;;16.30;90.20;;;;;;5068545;28;20855;-65
2022/09/05 02:29:58;;;;;;;6.10;5.03;;;16.30;90.60;;;;;;5046980;28;20336;-66
2022/09/05 02:32:56;;;;;;;5.93;4.17;;;16.20;90.60;;;;;;5052165;28;20319;-66
2022/09/05 02:35:53;;;;;;;5.90;4.70;;;16.20;90.80;;;;;;5044654;28;20191;-65
2022/09/05 02:39:00;;;;;;;5.00;4.17;;;16.20;91.30;;;;;;5058648;28;20656;-65
2022/09/05 02:42:02;;;;;;;4.87;4.23;;;16.10;91.40;;;;;;5045271;28;20245;-65
2022/09/05 02:44:35;;;;;;;8.13;4.27;;;16.10;91.70;;;;;;5048406;28;20187;-66
2022/09/05 02:47:12;;;;;;;7.70;4.03;;;16.10;92.20;;;;;;5046101;28;20209;-66
2022/09/05 02:50:04;;;;;;;4.63;3.73;;;16.10;91.90;;;;;;5050414;28;20296;-66
2022/09/05 02:52:33;;;;;;;5.40;4.20;;;16.10;92.00;;;;;;5066697;28;20190;-66
2022/09/05 02:55:01;;;;;;;7.53;4.37;;;16.00;92.30;;;;;;5068607;28;20181;-66
2022/09/05 02:57:38;;;;;;;5.47;4.97;;;16.00;92.60;;;;;;5066371;28;20194;-66
2022/09/05 03:00:15;;;;;;;4.47;4.07;;;16.00;92.70;;;;;;5068551;28;20178;-66
2022/09/05 03:03:02;;;;;;;4.80;4.40;;;16.00;93.00;;;;;;5066213;28;20208;-65
2022/09/05 03:05:41;;;;;;;4.63;4.23;;;15.90;93.20;;;;;;5048326;28;20195;-65
2022/09/05 03:08:25;;;;;;;5.67;4.60;;;15.90;93.30;;;;;;5056015;28;20697;-66
2022/09/05 03:11:01;;;;;;;8.53;4.57;;;15.90;93.60;;;;;;5048541;28;20206;-66
2022/09/05 03:14:06;;;;;;;8.23;4.83;;;15.90;93.50;;;;;;5058386;28;20747;-66
2022/09/05 03:17:00;;;;;;;6.13;4.83;;;15.80;93.60;;;;;;5048668;28;20201;-65
2022/09/05 03:19:50;;;;;;;7.17;4.70;;;15.80;94.20;;;;;;5052471;28;20194;-65
2022/09/05 03:22:52;;;;;;;5.67;4.53;;;15.80;94.20;;;;;;5069329;28;20192;-66
2022/09/05 03:25:38;;;;;;;4.37;3.97;;;15.80;94.20;;;;;;5045293;28;20207;-66
2022/09/05 03:28:21;;;;;;;6.27;4.33;;;15.80;94.80;;;;;;5058885;28;20214;-65
2022/09/05 03:31:33;;;;;;;8.23;4.57;;;15.70;94.70;;;;;;5071842;28;20261;-65
2022/09/05 03:34:43;;;;;;;5.03;4.17;;;15.70;94.90;;;;;;5066433;28;20345;-65
2022/09/05 03:37:24;;;;;;;4.33;3.93;;;15.70;95.20;;;;;;5050886;28;20613;-65
2022/09/05 03:40:21;;;;;;;5.10;3.53;;;15.60;95.60;;;;;;5072127;28;20189;-65
2022/09/05 03:43:05;;;;;;;5.00;3.80;;;15.60;95.50;;;;;;5055616;28;20703;-65
2022/09/05 03:45:48;;;;;;;4.27;3.87;;;15.50;96.00;;;;;;5071722;28;20263;-65
2022/09/05 03:48:38;;;;;;;4.10;3.73;;;15.50;96.40;;;;;;5059399;28;20213;-65
2022/09/05 03:51:22;;;;;;;4.63;4.07;;;15.40;96.90;;;;;;5051796;28;20230;-66
2022/09/05 03:54:08;;;;;;;7.50;4.10;;;15.40;96.90;;;;;;5068961;28;20187;-66
2022/09/05 03:57:06;;;;;;;5.27;4.10;;;15.40;97.20;;;;;;5051700;28;20232;-66
2022/09/05 03:59:58;;;;;;;4.60;4.20;;;15.40;97.00;;;;;;5045282;28;20765;-65
2022/09/05 04:02:30;;;;;;;4.67;4.27;;;15.40;97.10;;;;;;5051793;28;20213;-65
2022/09/05 04:05:12;;;;;;;6.03;5.13;;;15.40;97.60;;;;;;5071577;28;20210;-65
2022/09/05 04:07:54;;;;;;;5.27;4.67;;;15.40;97.90;;;;;;5053431;28;20209;-65
2022/09/05 04:10:51;;;;;;;5.17;3.87;;;15.30;97.80;;;;;;5071479;28;20174;-65
2022/09/05 04:13:29;;;;;;;4.40;4.00;;;15.30;98.50;;;;;;5058351;28;20569;-65
2022/09/05 04:16:16;;;;;;;4.93;4.00;;;15.30;98.40;;;;;;5051512;28;20188;-65
2022/09/05 04:18:50;;;;;;;4.63;4.20;;;15.30;98.70;;;;;;5061434;28;20198;-66
2022/09/05 04:21:25;;;;;;;4.73;3.80;;;15.30;98.50;;;;;;5051191;28;20198;-66
2022/09/05 04:24:16;;;;;;;4.13;3.73;;;15.30;98.70;;;;;;5062641;28;20206;-65
2022/09/05 04:27:00;;;;;;;6.73;3.57;;;15.30;99.10;;;;;;5050783;28;20245;-65
2022/09/05 04:29:45;;;;;;;5.83;3.97;;;15.30;99.00;;;;;;5066351;28;20202;-66
2022/09/05 04:32:50;;;;;;;5.13;4.10;;;15.30;98.60;;;;;;5050840;28;20190;-66
2022/09/05 04:35:32;;;;;;;3.63;3.33;;;15.30;98.80;;;;;;5051047;28;20175;-66
2022/09/05 04:38:34;;;;;;;4.17;3.70;;;15.30;98.80;;;;;;5068367;28;20190;-66
2022/09/05 04:41:13;;;;;;;6.23;3.50;;;15.30;98.80;;;;;;5051140;28;20266;-66
2022/09/05 04:44:14;;;;;;;4.87;4.43;;;15.30;98.90;;;;;;5060019;28;20205;-66
2022/09/05 04:46:49;;;;;;;7.70;3.80;;;15.30;98.70;;;;;;5051719;28;20825;-66
2022/09/05 04:49:31;;;;;;;4.23;3.83;;;15.40;98.80;;;;;;5064828;28;20197;-66
2022/09/05 04:52:12;;;;;;;4.10;3.77;;;15.40;99.00;;;;;;5050181;28;20206;-66
2022/09/05 04:54:49;;;;;;;4.13;3.50;;;15.40;98.80;;;;;;5067995;28;20219;-67
2022/09/05 04:57:28;;;;;;;4.00;3.67;;;15.50;98.60;;;;;;5050462;28;20187;-67
2022/09/05 05:00:06;;;;;;;4.77;3.50;;;15.50;98.60;;;;;;5050401;28;20197;-67
2022/09/05 05:02:36;;;;;;;5.07;3.70;;;15.50;98.70;;;;;;5049633;28;20537;-67
2022/09/05 05:05:07;;;;;;;4.87;3.73;;;15.50;98.50;;;;;;5070378;28;20179;-66
2022/09/05 05:07:45;;;;;;;4.73;3.93;;;15.50;98.50;;;;;;5049350;28;20307;-66
2022/09/05 05:10:21;;;;;;;4.50;3.77;;;15.60;98.90;;;;;;5070362;28;20182;-67
2022/09/05 05:12:58;;;;;;;3.77;3.37;;;15.70;98.80;;;;;;5051063;28;20189;-67
2022/09/05 05:15:27;;;;;;;4.93;3.77;;;15.70;98.60;;;;;;5070116;28;20979;-66
2022/09/05 05:18:04;;;;;;;4.67;3.97;;;15.70;98.30;;;;;;5048222;28;20232;-66
2022/09/05 05:20:42;;;;;;;6.37;3.80;;;15.70;98.10;;;;;;5049890;28;20179;-65
2022/09/05 05:23:16;;;;;;;5.20;3.40;;;15.80;98.20;;;;;;5052152;28;20233;-66
2022/09/05 05:25:53;;;;;;;4.73;3.90;;;15.80;98.20;;;;;;5069430;28;20540;-64
2022/09/05 05:28:29;;;;;;;5.70;4.10;;;15.80;98.30;;;;;;5054942;28;20226;-64
2022/09/05 05:31:06;;;;;;;4.70;3.50;;;15.80;98.40;;;;;;5069472;28;20738;-65
2022/09/05 05:33:35;;;;;;;3.50;3.20;;;15.80;98.50;;;;;;5056656;28;20204;-64
2022/09/05 05:36:05;;;;;;;4.00;3.57;;;15.80;98.80;;;;;;5049741;28;20188;-65
2022/09/05 05:38:37;;;;;;;6.53;3.50;;;15.90;99.10;;;;;;5067034;28;20237;-64
2022/09/05 05:41:25;;;;;;;5.17;3.70;;;16.00;98.90;;;;;;5069080;28;20225;-65
2022/09/05 05:43:51;;;;;;;6.37;3.70;;;16.00;99.10;;;;;;5058715;28;20232;-65
2022/09/05 05:46:33;;;;;;;4.00;3.23;;;16.10;98.30;;;;;;5054759;28;20186;-65
2022/09/05 05:49:25;;;;;;;3.57;3.27;;;16.10;98.60;;;;;;5067572;28;20244;-65
2022/09/05 05:52:07;;;;;;;4.27;3.57;;;16.20;98.80;;;;;;5049489;28;20523;-65
2022/09/05 05:54:49;;;;;;;5.07;2.97;;;16.20;98.70;;;;;;5064364;28;20202;-65
2022/09/05 05:57:28;;;;;;;3.70;3.40;;;16.30;98.30;;;;;;5049243;28;20192;-64
2022/09/05 06:00:16;;;;;;;4.33;3.77;;;16.40;97.90;;;;;;5066755;28;20635;-65
2022/09/05 06:03:17;;;;;;;3.63;3.17;;;16.40;98.10;;;;;;5048027;28;20176;-65
2022/09/05 06:06:07;;;;;;;4.13;3.40;;;16.50;97.60;;;;;;5068917;28;20212;-65
2022/09/05 06:09:01;;;;;;;5.80;3.30;;;16.50;97.70;;;;;;5054870;28;20364;-65
2022/09/05 06:11:51;;;;;;;3.43;3.13;;;16.60;97.80;;;;;;5048725;28;20181;-65
2022/09/05 06:14:54;;;;;;;4.10;2.80;;;16.70;97.40;;;;;;5066030;28;20212;-65
2022/09/05 06:18:07;;;;;;;4.20;3.20;;;16.70;97.40;;;;;;5048885;28;20285;-65
2022/09/05 06:20:46;;;;;;;5.70;3.83;;;16.80;97.60;;;;;;5048760;28;20232;-66
2022/09/05 06:23:42;;;;;;;4.47;3.37;;;16.90;97.00;;;;;;5066562;28;20202;-66
2022/09/05 06:26:35;;;;;;;5.07;4.07;;;17.00;96.70;;;;;;5068597;28;20183;-64
2022/09/05 06:29:31;;;;;;;3.80;3.50;;;17.20;96.80;;;;;;5057924;28;20216;-64
2022/09/05 06:32:05;;;;;;;4.90;3.20;;;17.40;95.70;;;;;;5048155;28;20654;-65
2022/09/05 06:35:01;;;;;;;3.00;2.70;;;17.50;95.90;;;;;;5061962;28;20650;-66
2022/09/05 06:37:58;;;;;;;4.57;3.40;;;17.50;95.40;;;;;;5068065;28;20200;-66
2022/09/05 06:40:35;;;;;;;5.27;3.20;;;17.60;95.60;;;;;;5048168;28;20241;-67
2022/09/05 06:43:16;;;;;;;4.00;3.30;;;17.80;95.70;;;;;;5048582;28;20415;-66
2022/09/05 06:46:29;;;;;;;4.60;3.80;;;17.90;95.20;;;;;;5066884;28;20529;-67
2022/09/05 06:49:16;;;;;;;4.10;3.47;;;18.00;95.20;;;;;;5028425;28;20667;-65
2022/09/05 06:52:21;;;;;;;3.93;3.30;;;18.10;95.50;;;;;;5066712;28;20232;-67
2022/09/05 06:55:29;;;;;;;6.50;3.50;;;18.10;94.80;;;;;;5062684;28;20200;-72
2022/09/05 06:58:43;;;;;;;3.53;3.23;;;18.20;94.90;;;;;;5047318;28;20204;-71
2022/09/05 07:01:10;;;;;;;5.43;3.07;;;18.30;95.00;;;;;;5016665;28;20244;-66
2022/09/05 07:04:08;;;;;;;4.80;3.80;;;18.40;95.20;;;;;;5050363;28;20667;-66
2022/09/05 07:06:46;;;;;;;3.53;3.23;;;18.40;94.70;;;;;;5067543;28;20213;-67
2022/09/05 07:09:26;;;;;;;4.27;3.67;;;18.40;94.40;;;;;;5057859;28;20732;-65
2022/09/05 07:12:09;;;;;;;5.13;3.33;;;18.40;94.60;;;;;;5047745;28;20211;-66
2022/09/05 07:14:49;;;;;;;4.67;3.30;;;18.40;95.00;;;;;;5061129;28;20366;-66
2022/09/05 07:17:56;;;;;;;3.57;3.27;;;18.50;95.20;;;;;;5048006;28;20723;-68
2022/09/05 07:20:45;;;;;;;4.97;2.83;;;18.60;95.00;;;;;;5043800;28;20676;-65
2022/09/05 07:23:16;;;;;;;3.83;3.13;;;18.70;94.50;;;;;;5047935;28;20309;-66
2022/09/05 07:25:48;;;;;;;5.90;3.43;;;18.70;94.80;;;;;;5068141;28;20184;-66
2022/09/05 07:28:15;;;;;;;7.73;3.07;;;18.80;94.50;;;;;;5048815;28;20221;-65
2022/09/05 07:30:50;;;;;;;5.47;2.70;;;18.90;94.30;;;;;;5067836;28;20598;-67
2022/09/05 07:33:28;;;;;;;5.20;3.53;;;19.00;94.10;;;;;;5049899;28;20197;-77
2022/09/05 07:36:05;;;;;;;4.27;3.47;;;19.10;94.50;;;;;;5066514;28;20573;-66
2022/09/05 07:38:35;;;;;;;4.30;3.00;;;19.20;94.00;;;;;;5051179;28;20744;-65
2022/09/05 07:41:22;;;;;;;7.50;3.60;;;19.20;93.80;;;;;;5067844;28;20183;-65
2022/09/05 07:43:54;;;;;;;3.90;3.53;;;19.30;93.90;;;;;;5065816;28;20205;-67
2022/09/05 07:46:23;;;;;;;4.30;3.10;;;19.30;93.40;;;;;;5067441;28;20182;-67
2022/09/05 07:48:59;;;;;;;4.93;3.50;;;19.40;93.50;;;;;;5065444;28;20218;-67
2022/09/05 07:51:27;;;;;;;3.83;2.97;;;19.40;93.40;;;;;;5067767;28;20222;-67
2022/09/05 07:54:00;;;;;;;3.37;2.93;;;19.40;93.10;;;;;;5065710;28;20198;-67
2022/09/05 07:57:08;;;;;;;4.87;3.63;;;19.40;93.00;;;;;;5047842;28;20229;-67
2022/09/05 07:59:36;;;;;;;6.73;3.17;;;19.50;93.00;;;;;;4974758;28;20193;-66
2022/09/05 08:02:04;;;;;;;3.57;3.20;;;19.60;93.20;;;;;;4966174;28;20229;-66
2022/09/05 08:04:35;;;;;;;5.87;3.53;;;19.70;92.90;;;;;;5016025;28;20740;-67
2022/09/05 08:07:45;;;;;;;6.97;3.97;;;19.80;93.00;;;;;;5058079;28;20214;-67
2022/09/05 08:10:16;;;;;;;4.30;3.37;;;20.00;92.70;;;;;;5058450;28;20853;-65
2022/09/05 08:12:48;;;;;;;6.73;3.87;;;20.00;92.50;;;;;;5051155;28;20248;-69
2022/09/05 08:15:21;;;;;;;5.17;3.30;;;20.00;92.20;;;;;;5067238;28;20194;-66
2022/09/05 08:17:58;;;;;;;3.13;2.93;;;19.90;92.40;;;;;;5051481;28;20194;-66
2022/09/05 08:20:48;;;;;;;3.80;3.50;;;19.90;92.70;;;;;;5068787;28;20279;-66
2022/09/05 08:23:48;;;;;;;5.40;3.67;;;20.00;92.60;;;;;;5062826;28;20186;-66
2022/09/05 08:26:34;;;;;;;4.13;3.77;;;20.10;92.30;;;;;;5071502;28;20223;-65
2022/09/05 08:29:25;;;;;;;6.50;3.23;;;20.20;92.60;;;;;;5056786;28;20194;-67
2022/09/05 08:32:10;;;;;;;6.83;3.87;;;20.30;92.00;;;;;;5051388;28;20252;-67
2022/09/05 08:35:01;;;;;;;2.63;2.43;;;20.40;91.50;;;;;;5062209;28;20240;-66
2022/09/05 08:37:29;;;;;;;6.00;3.23;;;20.50;91.50;;;;;;5051291;28;20190;-66
2022/09/05 08:40:08;;;;;;;6.20;3.37;;;20.50;91.20;;;;;;5069012;28;20198;-66
2022/09/05 08:42:59;;;;;;;5.90;3.47;;;20.50;91.30;;;;;;5051095;28;20269;-66
2022/09/05 08:45:39;;;;;;;5.33;4.10;;;20.50;91.40;;;;;;5067755;28;20251;-77
2022/09/05 08:48:31;;;;;;;4.60;3.00;;;20.70;91.40;;;;;;5050878;28;20210;-65
2022/09/05 08:51:06;;;;;;;6.77;3.53;;;20.70;91.10;;;;;;5014953;28;20227;-67
2022/09/05 08:54:02;;;;;;;4.23;3.57;;;20.60;91.00;;;;;;5052252;28;20251;-65
2022/09/05 08:56:41;;;;;;;4.20;3.37;;;20.60;91.00;;;;;;5064079;28;20237;-65
2022/09/05 08:59:23;;;;;;;4.70;3.53;;;20.60;90.90;;;;;;5047620;28;20214;-66
2022/09/05 09:02:35;;;;;;;4.27;3.87;;;20.50;91.30;;;;;;5049690;28;20187;-65
2022/09/05 09:05:16;;;;;;;4.70;3.97;;;20.60;91.30;;;;;;5063288;28;20798;-65
2022/09/05 09:07:48;;;;;;;4.77;3.60;;;20.60;91.30;;;;;;5050333;28;20218;-66
2022/09/05 09:10:29;;;;;;;6.27;3.53;;;20.80;91.50;;;;;;5065150;28;20201;-65
2022/09/05 09:13:21;;;;;;;5.47;4.83;;;21.00;91.30;;;;;;5069828;28;20217;-64
2022/09/05 09:16:05;;;;;;;26.50;16.13;;;21.00;91.10;;;;;;5049645;28;20229;-65
2022/09/05 09:19:27;;;;;;;11.33;7.87;;;21.10;91.30;;;;;;5050485;28;20289;-66
2022/09/05 09:22:14;;;;;;;7.93;4.30;;;21.30;91.00;;;;;;5007732;28;20199;-65
2022/09/05 09:25:12;;;;;;;4.33;3.93;;;21.40;90.60;;;;;;5059826;28;20213;-65
2022/09/05 09:28:08;;;;;;;5.53;3.57;;;21.50;90.30;;;;;;5049475;28;20207;-65
2022/09/05 09:30:38;;;;;;;4.53;3.30;;;21.60;90.20;;;;;;5066803;28;20209;-65
2022/09/05 09:33:06;;;;;;;4.20;3.58;;;21.50;90.10;;;;;;5069185;28;20210;-66
2022/09/05 09:35:52;;;;;;;5.10;3.13;;;21.60;90.50;;;;;;5066465;28;20194;-66
2022/09/05 09:38:45;;;;;;;4.60;3.60;;;21.70;90.60;;;;;;5049502;28;20221;-65
2022/09/05 09:41:33;;;;;;;4.00;3.60;;;21.80;90.10;;;;;;5049572;28;20194;-65
2022/09/05 09:44:39;;;;;;;6.13;3.63;;;21.80;90.00;;;;;;5052567;28;20270;-65
2022/09/05 09:47:12;;;;;;;5.97;4.10;;;21.90;89.90;;;;;;5049582;28;20206;-64
2022/09/05 09:49:54;;;;;;;4.20;3.13;;;22.00;89.60;;;;;;5057971;28;20242;-65
2022/09/05 09:52:20;;;;;;;4.40;3.45;;;22.20;88.50;;;;;;4981371;28;20183;-65
2022/09/05 09:55:23;;;;;;;4.83;4.07;;;22.30;88.50;;;;;;5059134;28;20198;-65
2022/09/05 09:58:08;;;;;;;3.58;3.38;;;22.40;88.50;;;;;;5076620;22;20359;-65
2022/09/05 10:00:50;;;;;;;4.63;3.05;;;22.30;87.90;;;;;;5049498;28;20207;-64
2022/09/05 10:03:31;;;;;;;4.65;3.60;;;22.30;89.60;;;;;;5049009;28;20518;-66
2022/09/05 10:06:37;;;;;;;3.58;3.28;;;22.50;89.60;;;;;;5049130;28;20205;-65
2022/09/05 10:09:12;;;;;;;4.13;3.10;;;22.60;88.70;;;;;;5047527;28;20282;-65
2022/09/05 10:11:55;;;;;;;4.05;3.65;;;22.80;88.50;;;;;;5048811;28;20648;-63
2022/09/05 10:14:35;;;;;;;6.00;3.63;;;22.90;87.40;;;;;;5047566;28;20237;-64
2022/09/05 10:17:12;;;;;;;4.07;3.67;;;22.90;86.80;;;;;;5049230;28;20232;-64
2022/09/05 10:20:06;;;;;;;5.03;3.90;;;23.00;87.10;;;;;;5057506;28;20226;-64
2022/09/05 10:22:44;;;;;;;4.63;3.22;;;23.10;86.20;;;;;;5049428;28;20201;-65
2022/09/05 10:25:27;;;;;;;4.57;3.95;;;23.10;86.90;;;;;;5061207;28;20714;-65
2022/09/05 10:28:06;;;;;;;3.70;3.40;;;23.20;86.20;;;;;;5048120;28;20742;-65
2022/09/05 10:30:45;;;;;;;4.32;3.08;;;23.20;86.10;;;;;;5063739;28;20289;-65
2022/09/05 10:33:30;;;;;;;3.75;3.03;;;23.30;85.00;;;;;;5049412;28;20208;-66
2022/09/05 10:36:05;;;;;;;5.43;3.13;;;23.40;84.90;;;;;;5069073;28;20201;-65
2022/09/05 10:38:41;;;;;;;2.92;2.65;;;23.30;83.80;;;;;;5049470;28;20197;-64
2022/09/05 10:41:16;;;;;;;3.58;3.25;;;23.20;85.00;;;;;;5049344;28;20188;-65
2022/09/05 10:44:01;;;;;;;2.63;2.42;;;23.30;84.60;;;;;;5045267;28;20245;-65
2022/09/05 10:47:06;;;;;;;3.00;2.70;;;23.40;84.80;;;;;;5055358;28;20583;-66
2022/09/05 10:49:37;;;;;;;3.13;2.80;;;23.50;84.30;;;;;;5046962;28;20281;-67
2022/09/05 10:52:12;;;;;;;16.83;9.20;;;23.60;84.50;;;;;;5048587;28;20402;-76
2022/09/05 10:54:52;;;;;;;5.70;3.42;;;23.80;88.40;;;;;;5060116;28;20203;-79
2022/09/05 10:57:45;;;;;;;4.70;3.47;;;24.00;87.00;;;;;;5048362;28;20600;-64
2022/09/05 11:00:28;;;;;;;5.18;3.53;;;24.20;83.40;;;;;;5046637;28;20223;-64
2022/09/05 11:02:57;;;;;;;6.28;4.22;;;24.20;84.40;;;;;;5049045;28;20221;-63
2022/09/05 11:05:25;;;;;;;26.05;11.68;;;24.40;83.20;;;;;;5051935;28;20199;-64
2022/09/05 11:08:20;;;;;;;132.98;44.50;;;24.60;82.50;;;;;;5068022;28;20221;-65
2022/09/05 11:10:45;;;;;;;138.80;46.53;;;24.70;80.10;;;;;;5063789;28;20221;-62
2022/09/05 11:13:42;;;;;;;151.27;59.55;;;24.70;79.40;;;;;;5048819;28;20614;-63
2022/09/05 11:16:10;;;;;;;182.98;68.97;;;24.70;80.20;;;;;;5047492;28;20311;-64
2022/09/05 11:19:02;;;;;;;72.95;31.20;;;24.80;80.30;;;;;;5067927;28;20199;-64
2022/09/05 11:21:48;;;;;;;56.63;23.05;;;25.00;80.20;;;;;;5048211;28;20183;-63
2022/09/05 11:24:30;;;;;;;118.30;45.08;;;25.20;80.10;;;;;;5046152;28;20198;-63
2022/09/05 11:27:21;;;;;;;117.65;47.95;;;25.30;77.80;;;;;;5048212;28;20215;-63
2022/09/05 11:30:03;;;;;;;232.05;83.13;;;25.40;77.90;;;;;;5046378;28;20203;-63
2022/09/05 11:33:05;;;;;;;150.68;57.70;;;25.50;76.00;;;;;;5048564;28;20285;-63
2022/09/05 11:35:38;;;;;;;118.93;47.50;;;25.60;75.20;;;;;;5061126;28;20200;-63
2022/09/05 11:38:10;;;;;;;123.72;45.95;;;25.70;72.60;;;;;;5049193;28;20201;-65
2022/09/05 11:40:58;;;;;;;92.85;37.10;;;25.70;71.00;;;;;;5054356;28;20202;-64
2022/09/05 11:43:58;;;;;;;56.83;26.75;;;25.70;73.70;;;;;;5052463;28;20212;-65
2022/09/05 11:46:32;;;;;;;68.38;29.02;;;25.70;72.30;;;;;;5057946;28;20283;-64
2022/09/05 11:49:18;;;;;;;77.22;33.08;;;25.80;71.60;;;;;;5069746;28;20216;-64
2022/09/05 11:52:00;;;;;;;86.22;32.05;;;25.80;71.80;;;;;;5053939;28;20223;-64
2022/09/05 11:55:15;;;;;;;45.13;17.92;;;25.90;71.20;;;;;;5050371;28;20220;-65
2022/09/05 11:57:43;;;;;;;39.83;19.23;;;26.10;70.90;;;;;;5052720;28;20253;-64
2022/09/05 12:00:17;;;;;;;38.65;18.50;;;26.10;70.40;;;;;;5069506;28;20205;-66
2022/09/05 12:03:24;;;;;;;22.88;11.60;;;26.20;70.90;;;;;;5051731;28;20197;-64
2022/09/05 12:06:27;;;;;;;30.70;13.07;;;26.40;69.90;;;;;;5017281;28;20240;-64
2022/09/05 12:09:00;;;;;;;19.65;9.52;;;26.50;68.70;;;;;;5056780;28;20198;-64
2022/09/05 12:11:54;;;;;;;23.45;11.55;;;26.50;69.90;;;;;;5071136;28;20192;-64
2022/09/05 12:14:37;;;;;;;12.18;7.10;;;26.60;70.50;;;;;;5049077;28;20223;-64
2022/09/05 12:17:29;;;;;;;17.92;9.10;;;26.80;69.20;;;;;;5050831;28;20194;-64
2022/09/05 12:20:18;;;;;;;12.65;7.03;;;27.00;67.70;;;;;;5049204;28;20193;-64
2022/09/05 12:22:57;;;;;;;10.68;6.55;;;27.30;66.70;;;;;;5032776;28;20648;-64
2022/09/05 12:26:04;;;;;;;10.95;7.30;;;27.30;65.50;;;;;;5048973;28;20260;-64
2022/09/05 12:28:56;;;;;;;9.18;5.70;;;27.20;65.70;;;;;;5070611;28;20216;-64
2022/09/05 12:31:33;;;;;;;9.23;6.20;;;27.30;66.50;;;;;;5050949;28;20202;-65
2022/09/05 12:34:01;;;;;;;6.07;5.45;;;27.40;64.70;;;;;;5048798;28;20195;-66
2022/09/05 12:36:42;;;;;;;8.43;4.75;;;27.60;65.00;;;;;;5033113;28;20186;-65
2022/09/05 12:39:41;;;;;;;8.05;4.35;;;27.80;65.00;;;;;;5049141;28;20683;-66
2022/09/05 12:42:27;;;;;;;5.00;4.38;;;28.00;63.30;;;;;;5050802;28;20230;-63
2022/09/05 12:45:08;;;;;;;4.93;4.03;;;28.30;63.00;;;;;;5048896;28;20207;-64
2022/09/05 12:47:55;;;;;;;5.28;4.40;;;28.50;61.90;;;;;;5000196;28;20214;-66
2022/09/05 12:50:31;;;;;;;6.60;4.20;;;28.60;61.50;;;;;;5056364;28;20199;-66
2022/09/05 12:53:02;;;;;;;4.78;4.20;;;28.60;61.30;;;;;;5050732;28;20183;-65
2022/09/05 12:55:36;;;;;;;4.22;3.55;;;28.60;60.20;;;;;;5061047;28;20204;-64
2022/09/05 12:58:30;;;;;;;4.20;3.90;;;28.40;60.80;;;;;;5053492;28;20214;-65
2022/09/05 13:01:25;;;;;;;3.97;3.33;;;28.50;60.10;;;;;;5067500;28;20206;-65
2022/09/05 13:03:51;;;;;;;5.55;4.05;;;28.50;60.70;;;;;;5066979;28;20186;-64
2022/09/05 13:06:29;;;;;;;3.60;3.20;;;28.80;60.50;;;;;;5059624;28;20221;-63
2022/09/05 13:09:02;;;;;;;3.28;3.08;;;29.20;58.70;;;;;;5060094;28;20186;-65
2022/09/05 13:11:31;;;;;;;3.63;3.35;;;29.40;58.50;;;;;;5059248;28;20206;-63
2022/09/05 13:14:06;;;;;;;4.93;3.88;;;29.70;59.10;;;;;;5059855;28;20186;-63
2022/09/05 13:16:34;;;;;;;6.55;4.20;;;30.00;56.60;;;;;;5059645;28;20181;-65
2022/09/05 13:19:07;;;;;;;4.65;4.25;;;30.00;57.20;;;;;;5059174;28;20188;-64
2022/09/05 13:21:44;;;;;;;3.78;3.47;;;30.20;56.30;;;;;;5059679;28;20248;-66
2022/09/05 13:24:22;;;;;;;3.30;3.10;;;30.40;56.90;;;;;;5057245;28;20186;-64
2022/09/05 13:26:57;;;;;;;3.20;2.85;;;30.60;55.00;;;;;;5058852;28;20191;-64
2022/09/05 13:29:28;;;;;;;3.45;3.15;;;30.60;54.70;;;;;;5057070;28;20687;-65
2022/09/05 13:32:00;;;;;;;4.70;3.20;;;30.50;54.70;;;;;;5059655;28;20183;-64
2022/09/05 13:34:45;;;;;;;5.32;3.30;;;30.40;54.50;;;;;;5056852;28;20704;-64
2022/09/05 13:37:19;;;;;;;3.40;3.10;;;30.60;53.70;;;;;;5059178;28;20179;-65
2022/09/05 13:40:21;;;;;;;3.95;3.22;;;30.80;53.70;;;;;;5056394;28;20341;-65
2022/09/05 13:43:04;;;;;;;3.38;3.10;;;31.10;53.30;;;;;;5050671;28;20659;-72
2022/09/05 13:45:34;;;;;;;3.60;3.30;;;31.60;52.50;;;;;;5047898;28;20212;-65
2022/09/05 13:48:33;;;;;;;3.47;3.17;;;32.00;51.80;;;;;;5063489;28;20191;-66
2022/09/05 13:51:24;;;;;;;3.30;3.08;;;32.10;50.30;;;;;;5056589;28;20648;-65
2022/09/05 13:53:59;;;;;;;3.10;2.90;;;32.00;50.60;;;;;;5057125;28;20629;-65
2022/09/05 13:56:30;;;;;;;3.83;3.25;;;32.20;50.10;;;;;;5055586;28;20196;-66
2022/09/05 13:59:07;;;;;;;3.70;3.40;;;32.20;50.20;;;;;;5056797;28;20214;-64
2022/09/05 14:02:04;;;;;;;3.55;3.30;;;32.50;49.50;;;;;;5056262;28;20196;-64
2022/09/05 14:05:04;;;;;;;3.75;3.45;;;32.80;48.70;;;;;;5057254;28;20209;-64
2022/09/05 14:07:59;;;;;;;3.45;3.15;;;32.90;48.20;;;;;;5059049;28;20209;-75
2022/09/05 14:10:58;;;;;;;7.03;3.28;;;32.90;48.50;;;;;;5057173;28;20197;-69
2022/09/05 14:13:29;;;;;;;3.78;3.47;;;32.80;46.90;;;;;;5058712;28;20241;-69
2022/09/05 14:16:12;;;;;;;4.18;3.60;;;32.90;47.10;;;;;;5055684;28;20194;-71